Time;durP1;ratioP1;P1;durP2;ratioP2;P2;SDS_P1;SDS_P2;PMS_P1;PMS_P2;Temp;Humidity;BMP_temperature;BMP_pressure;BME280_temperature;BME280_humidity;BME280_pressure;Samples;Min_cycle;Max_cycle;Signal;HPM_P1;HPM_P2
2022/03/03 00:01:54;;;;;;;23.40;15.23;;;-1.00;99.90;;;;;;5012107;28;20282;-31
2022/03/03 00:04:20;;;;;;;25.80;14.83;;;-1.10;99.90;;;;;;4993693;28;20179;-31
2022/03/03 00:06:46;;;;;;;23.67;15.20;;;-1.10;99.90;;;;;;5011990;28;20183;-31
2022/03/03 00:09:12;;;;;;;29.63;16.73;;;-1.10;99.90;;;;;;4993802;28;20192;-31
2022/03/03 00:11:38;;;;;;;25.73;16.10;;;-1.10;99.90;;;;;;4994314;28;20188;-30
2022/03/03 00:14:04;;;;;;;24.93;15.80;;;-1.10;99.90;;;;;;4978073;28;20183;-30
2022/03/03 00:16:30;;;;;;;26.03;15.47;;;-1.00;99.90;;;;;;4994310;28;20285;-30
2022/03/03 00:18:57;;;;;;;24.97;14.50;;;-1.10;99.90;;;;;;5011438;28;20277;-30
2022/03/03 00:21:23;;;;;;;28.83;17.23;;;-1.10;99.90;;;;;;5012282;28;20259;-31
2022/03/03 00:23:48;;;;;;;28.53;17.80;;;-1.10;99.90;;;;;;4994039;28;20657;-30
2022/03/03 00:26:14;;;;;;;29.93;16.97;;;-1.20;99.90;;;;;;4994040;28;20225;-30
2022/03/03 00:28:40;;;;;;;27.07;16.70;;;-1.20;99.90;;;;;;4977724;28;20277;-30
2022/03/03 00:31:07;;;;;;;31.20;16.97;;;-1.10;99.90;;;;;;4977977;28;20202;-30
2022/03/03 00:33:33;;;;;;;25.87;17.27;;;-1.20;99.90;;;;;;4977743;28;20188;-30
2022/03/03 00:35:59;;;;;;;31.90;18.20;;;-1.20;99.90;;;;;;4993899;28;20186;-30
2022/03/03 00:38:25;;;;;;;28.47;15.87;;;-1.20;99.90;;;;;;4993784;28;20195;-30
2022/03/03 00:40:51;;;;;;;30.50;17.13;;;-1.20;99.90;;;;;;4993606;28;20183;-30
2022/03/03 00:43:18;;;;;;;29.80;16.53;;;-1.20;99.90;;;;;;4993688;28;20241;-30
2022/03/03 00:45:44;;;;;;;27.57;15.87;;;-1.30;99.90;;;;;;4993654;28;20191;-30
2022/03/03 00:48:09;;;;;;;29.10;15.87;;;-1.40;99.90;;;;;;4977605;28;20207;-30
2022/03/03 00:50:35;;;;;;;28.90;16.07;;;-1.60;99.90;;;;;;5011189;28;20171;-30
2022/03/03 00:53:01;;;;;;;31.00;17.20;;;-1.60;99.90;;;;;;4977282;28;20194;-30
2022/03/03 00:55:27;;;;;;;25.30;15.50;;;-1.80;99.90;;;;;;4993684;28;20245;-30
2022/03/03 00:57:53;;;;;;;29.43;16.20;;;-1.80;99.90;;;;;;4993506;28;20219;-30
2022/03/03 01:00:19;;;;;;;33.00;17.17;;;-1.90;99.90;;;;;;4993284;28;20266;-30
2022/03/03 01:02:46;;;;;;;28.07;16.57;;;-2.00;99.90;;;;;;4993730;28;20175;-30
2022/03/03 01:05:12;;;;;;;29.03;16.50;;;-2.00;99.90;;;;;;4993490;28;20590;-30
2022/03/03 01:07:38;;;;;;;29.10;16.27;;;-2.00;99.90;;;;;;4993306;28;20203;-30
2022/03/03 01:10:07;;;;;;;28.97;15.50;;;-1.90;99.90;;;;;;4993369;28;20252;-30
2022/03/03 01:12:32;;;;;;;28.73;16.03;;;-1.90;99.90;;;;;;4993210;28;20206;-31
2022/03/03 01:14:58;;;;;;;29.47;16.37;;;-1.90;99.90;;;;;;4979498;28;20326;-31
2022/03/03 01:17:24;;;;;;;31.40;17.80;;;-1.90;99.90;;;;;;4997324;28;20237;-32
2022/03/03 01:19:50;;;;;;;27.30;17.10;;;-1.80;99.90;;;;;;4981042;28;20183;-31
2022/03/03 01:22:16;;;;;;;30.57;16.27;;;-1.80;99.90;;;;;;4997397;28;20185;-31
2022/03/03 01:24:43;;;;;;;34.53;17.03;;;-1.90;99.90;;;;;;4997478;28;20183;-31
2022/03/03 01:27:08;;;;;;;32.73;18.37;;;-1.90;99.90;;;;;;4981093;28;20198;-31
2022/03/03 01:29:35;;;;;;;28.10;16.17;;;-1.90;99.90;;;;;;4981029;28;20237;-31
2022/03/03 01:32:00;;;;;;;31.97;18.03;;;-1.80;99.90;;;;;;4997493;28;20226;-31
2022/03/03 01:34:27;;;;;;;29.27;16.83;;;-1.80;99.90;;;;;;4997475;28;20187;-31
2022/03/03 01:36:52;;;;;;;32.40;15.77;;;-1.80;99.90;;;;;;4996648;28;20246;-30
2022/03/03 01:39:18;;;;;;;22.80;15.60;;;-1.80;99.90;;;;;;4979966;28;20211;-31
2022/03/03 01:41:44;;;;;;;28.23;16.47;;;-1.70;99.90;;;;;;4979157;28;20183;-31
2022/03/03 01:44:10;;;;;;;29.17;16.47;;;-1.80;99.90;;;;;;4997181;28;20172;-31
2022/03/03 01:46:46;;;;;;;27.77;16.17;;;-1.80;99.90;;;;;;4997128;28;20183;-31
2022/03/03 01:49:12;;;;;;;27.30;15.80;;;-1.70;99.90;;;;;;5014351;28;20175;-30
2022/03/03 01:51:38;;;;;;;24.93;15.03;;;-1.70;99.90;;;;;;4997188;28;20628;-31
2022/03/03 01:54:03;;;;;;;27.63;16.57;;;-1.70;99.90;;;;;;4996959;28;20182;-30
2022/03/03 01:56:29;;;;;;;26.10;16.30;;;-1.80;99.90;;;;;;4997211;28;20251;-30
2022/03/03 01:58:55;;;;;;;28.03;16.57;;;-1.80;99.90;;;;;;4996604;28;20207;-30
2022/03/03 02:01:21;;;;;;;28.20;16.50;;;-1.90;99.90;;;;;;5014414;28;20206;-31
2022/03/03 02:03:47;;;;;;;28.93;16.10;;;-2.00;99.90;;;;;;4996863;28;20522;-30
2022/03/03 02:06:12;;;;;;;27.40;16.57;;;-1.90;99.90;;;;;;4996500;28;20270;-30
2022/03/03 02:08:38;;;;;;;26.13;15.63;;;-1.90;99.90;;;;;;5014044;28;20202;-30
2022/03/03 02:11:05;;;;;;;24.13;14.77;;;-1.80;99.90;;;;;;5013977;28;20182;-30
2022/03/03 02:13:32;;;;;;;26.77;14.70;;;-1.90;99.90;;;;;;4996647;28;20179;-30
2022/03/03 02:15:58;;;;;;;28.37;15.57;;;-1.90;99.90;;;;;;4996322;28;20179;-31
2022/03/03 02:18:23;;;;;;;26.67;15.60;;;-1.90;99.90;;;;;;4996000;28;20234;-31
2022/03/03 02:20:49;;;;;;;28.23;15.27;;;-1.80;99.90;;;;;;4979889;28;20281;-30
2022/03/03 02:23:15;;;;;;;26.33;15.23;;;-1.80;99.90;;;;;;4996315;28;20186;-30
2022/03/03 02:25:41;;;;;;;26.83;15.97;;;-1.80;99.90;;;;;;4995648;28;20259;-30
2022/03/03 02:28:07;;;;;;;27.40;16.03;;;-1.90;99.90;;;;;;4980079;28;20688;-30
2022/03/03 02:30:33;;;;;;;27.43;16.67;;;-1.90;99.90;;;;;;4995846;28;20222;-30
2022/03/03 02:32:59;;;;;;;29.37;15.30;;;-1.90;99.90;;;;;;4995770;28;20321;-30
2022/03/03 02:35:27;;;;;;;25.37;15.07;;;-2.00;99.90;;;;;;4996449;28;20179;-30
2022/03/03 02:37:53;;;;;;;28.40;15.57;;;-2.10;99.90;;;;;;4979742;28;20269;-30
2022/03/03 02:40:22;;;;;;;29.33;15.43;;;-2.30;99.90;;;;;;4995837;28;20724;-31
2022/03/03 02:42:49;;;;;;;25.20;14.90;;;-2.30;99.90;;;;;;4996343;28;20225;-30
2022/03/03 02:45:16;;;;;;;27.20;15.27;;;-2.40;99.90;;;;;;4995960;28;20180;-30
2022/03/03 02:47:43;;;;;;;26.10;15.20;;;-2.40;99.90;;;;;;4979349;28;20203;-30
2022/03/03 02:50:09;;;;;;;30.53;15.83;;;-2.50;99.90;;;;;;5013229;28;20183;-30
2022/03/03 02:52:36;;;;;;;26.93;15.73;;;-2.60;99.90;;;;;;4995947;28;20636;-30
2022/03/03 02:55:03;;;;;;;23.73;14.43;;;-2.70;99.90;;;;;;5013382;28;20644;-30
2022/03/03 03:00:13;;;;;;;27.60;15.37;;;-2.80;99.90;;;;;;4997620;28;20179;-30
2022/03/03 03:02:39;;;;;;;27.57;15.67;;;-2.80;99.90;;;;;;4998318;28;20183;-30
2022/03/03 03:05:05;;;;;;;27.40;15.60;;;-2.80;99.90;;;;;;4998100;28;20175;-30
2022/03/03 03:07:31;;;;;;;32.23;16.90;;;-2.70;99.90;;;;;;4998035;28;20214;-30
2022/03/03 03:09:57;;;;;;;31.57;16.10;;;-2.80;99.90;;;;;;4994248;28;20196;-30
2022/03/03 03:12:23;;;;;;;26.40;15.60;;;-2.80;99.90;;;;;;4978276;28;20536;-30
2022/03/03 03:14:49;;;;;;;27.93;15.73;;;-2.80;99.90;;;;;;4995677;28;20176;-30
2022/03/03 03:17:14;;;;;;;23.63;15.13;;;-2.90;99.90;;;;;;4978156;28;20224;-30
2022/03/03 03:19:40;;;;;;;33.80;17.20;;;-2.80;99.90;;;;;;4978126;28;20218;-30
2022/03/03 03:22:06;;;;;;;27.23;16.10;;;-2.70;99.90;;;;;;4978071;28;20192;-30
2022/03/03 03:24:32;;;;;;;25.97;15.03;;;-2.70;99.90;;;;;;4978465;28;20183;-30
2022/03/03 03:26:58;;;;;;;28.67;15.73;;;-2.60;99.90;;;;;;4977813;28;20206;-30
2022/03/03 03:29:24;;;;;;;27.63;16.20;;;-2.60;99.90;;;;;;4977625;28;20186;-30
2022/03/03 03:31:50;;;;;;;26.70;15.13;;;-2.60;99.90;;;;;;4978278;28;20168;-30
2022/03/03 03:34:16;;;;;;;27.67;15.53;;;-2.60;99.90;;;;;;4978090;28;20180;-30
2022/03/03 03:36:41;;;;;;;26.07;15.10;;;-2.60;99.90;;;;;;4977852;28;20204;-30
2022/03/03 03:39:07;;;;;;;24.17;15.63;;;-2.50;99.90;;;;;;4995061;28;20187;-30
2022/03/03 03:41:33;;;;;;;28.97;16.80;;;-2.60;99.90;;;;;;4994304;28;20187;-30
2022/03/03 03:43:59;;;;;;;35.67;16.90;;;-2.60;99.90;;;;;;4980406;28;20278;-30
2022/03/03 03:46:25;;;;;;;32.13;17.07;;;-2.60;99.90;;;;;;4997031;28;20218;-30
2022/03/03 03:48:51;;;;;;;27.10;15.83;;;-2.60;99.90;;;;;;4980589;28;20203;-30
2022/03/03 03:51:17;;;;;;;27.00;15.10;;;-2.50;99.90;;;;;;4997226;28;20240;-30
2022/03/03 03:53:43;;;;;;;29.07;15.90;;;-2.60;99.90;;;;;;4996974;28;20183;-30
2022/03/03 03:56:09;;;;;;;24.90;14.33;;;-2.60;99.90;;;;;;4996911;28;20542;-30
2022/03/03 03:58:34;;;;;;;25.40;13.67;;;-2.60;99.90;;;;;;4997036;28;20194;-30
2022/03/03 04:01:00;;;;;;;27.83;15.47;;;-2.60;99.90;;;;;;4996330;28;20175;-30
2022/03/03 04:03:26;;;;;;;23.90;13.97;;;-2.60;99.90;;;;;;4996724;28;20243;-30
2022/03/03 04:05:54;;;;;;;27.17;14.20;;;-2.60;99.90;;;;;;4980590;28;20180;-30
2022/03/03 04:08:20;;;;;;;29.43;15.47;;;-2.60;99.90;;;;;;4996603;28;20206;-30
2022/03/03 04:10:47;;;;;;;29.87;16.07;;;-2.60;99.90;;;;;;4986304;28;20195;-30
2022/03/03 04:13:15;;;;;;;26.80;14.57;;;-2.60;99.90;;;;;;4975782;28;20176;-30
2022/03/03 04:15:41;;;;;;;26.27;14.37;;;-2.60;99.90;;;;;;4975886;28;20183;-30
2022/03/03 04:18:07;;;;;;;25.73;14.53;;;-2.60;99.90;;;;;;4978121;28;20269;-30
2022/03/03 04:20:33;;;;;;;31.37;15.73;;;-2.60;99.90;;;;;;4980408;28;20183;-30
2022/03/03 04:22:59;;;;;;;26.30;15.47;;;-2.90;99.90;;;;;;4978957;28;20171;-30
2022/03/03 04:25:35;;;;;;;26.33;15.23;;;-3.20;99.90;;;;;;4978797;28;20243;-31
2022/03/03 04:28:02;;;;;;;26.97;15.20;;;-3.20;99.90;;;;;;4979253;28;20195;-30
2022/03/03 04:30:28;;;;;;;30.03;15.93;;;-3.30;99.90;;;;;;4977002;28;20242;-30
2022/03/03 04:32:53;;;;;;;29.77;16.67;;;-3.20;99.90;;;;;;4979024;28;20180;-30
2022/03/03 04:35:19;;;;;;;25.00;15.53;;;-3.20;99.90;;;;;;4979824;28;20187;-30
2022/03/03 04:37:45;;;;;;;28.03;15.83;;;-3.20;99.90;;;;;;4978729;28;20215;-30
2022/03/03 04:40:11;;;;;;;27.80;15.70;;;-3.20;99.90;;;;;;4983859;28;20187;-30
2022/03/03 04:42:37;;;;;;;26.97;15.47;;;-3.20;99.90;;;;;;4982614;28;20187;-30
2022/03/03 04:45:04;;;;;;;27.27;14.80;;;-3.10;99.90;;;;;;4980931;28;20179;-30
2022/03/03 04:47:30;;;;;;;27.93;15.77;;;-3.10;99.90;;;;;;4995301;28;20226;-30
2022/03/03 04:49:56;;;;;;;24.40;15.33;;;-3.20;99.90;;;;;;4993204;28;20231;-29
2022/03/03 04:52:22;;;;;;;25.67;14.73;;;-3.20;99.90;;;;;;4994135;28;20260;-30
2022/03/03 04:54:49;;;;;;;25.93;15.20;;;-3.10;99.90;;;;;;4993754;28;20197;-30
2022/03/03 04:57:15;;;;;;;30.07;16.50;;;-3.20;99.90;;;;;;4993616;28;20214;-30
2022/03/03 04:59:41;;;;;;;24.83;14.40;;;-3.20;99.90;;;;;;4993489;28;20183;-30
2022/03/03 05:02:07;;;;;;;30.43;15.93;;;-3.20;99.90;;;;;;4977541;28;20187;-29
2022/03/03 05:04:33;;;;;;;24.53;14.80;;;-3.20;99.90;;;;;;4993700;28;20183;-30
2022/03/03 05:06:59;;;;;;;29.83;15.73;;;-3.40;99.90;;;;;;4993591;28;20209;-30
2022/03/03 05:09:25;;;;;;;29.13;15.47;;;-3.50;99.90;;;;;;4993134;28;20262;-30
2022/03/03 05:11:50;;;;;;;32.43;16.53;;;-3.50;99.90;;;;;;4993583;28;20187;-30
2022/03/03 05:14:16;;;;;;;28.73;15.73;;;-3.60;99.90;;;;;;4993689;28;20179;-30
2022/03/03 05:16:42;;;;;;;32.53;16.90;;;-3.70;99.90;;;;;;4993309;28;20203;-29
2022/03/03 05:19:08;;;;;;;28.03;17.13;;;-3.70;99.90;;;;;;4994592;28;20210;-30
2022/03/03 05:21:34;;;;;;;27.03;15.83;;;-3.60;99.90;;;;;;4993753;28;20175;-30
2022/03/03 05:24:00;;;;;;;31.03;16.00;;;-3.60;99.90;;;;;;4977094;28;20179;-30
2022/03/03 05:26:26;;;;;;;28.50;16.10;;;-3.50;99.90;;;;;;4993620;28;20192;-30
2022/03/03 05:28:53;;;;;;;30.67;16.73;;;-3.50;99.90;;;;;;5010629;28;20187;-30
2022/03/03 05:31:19;;;;;;;32.13;17.40;;;-3.50;99.90;;;;;;4993437;28;20179;-30
2022/03/03 05:33:45;;;;;;;29.63;16.43;;;-3.50;99.90;;;;;;4977237;28;20194;-30
2022/03/03 05:36:11;;;;;;;27.77;16.10;;;-3.50;99.90;;;;;;4976772;28;20179;-30
2022/03/03 05:38:37;;;;;;;25.47;15.53;;;-3.40;99.90;;;;;;4993367;28;20302;-30
2022/03/03 05:41:05;;;;;;;30.47;16.33;;;-3.30;99.90;;;;;;4992855;28;20184;-31
2022/03/03 05:43:32;;;;;;;30.77;16.77;;;-3.20;99.90;;;;;;4977254;28;20242;-30
2022/03/03 05:45:58;;;;;;;28.47;16.73;;;-3.20;99.90;;;;;;4976974;28;20179;-30
2022/03/03 05:48:28;;;;;;;25.23;14.43;;;-3.10;99.90;;;;;;4977156;28;20204;-30
2022/03/03 05:50:55;;;;;;;25.60;14.57;;;-3.20;99.90;;;;;;4992187;28;20177;-30
2022/03/03 05:53:22;;;;;;;26.43;15.47;;;-3.10;99.90;;;;;;4992963;28;20202;-30
2022/03/03 05:55:54;;;;;;;25.63;14.87;;;-3.10;99.90;;;;;;4992899;28;20183;-30
2022/03/03 05:58:24;;;;;;;27.53;15.67;;;-3.10;99.90;;;;;;4977183;28;20222;-30
2022/03/03 06:00:54;;;;;;;26.43;15.73;;;-3.10;99.90;;;;;;4993251;28;20192;-30
2022/03/03 06:03:22;;;;;;;30.77;16.57;;;-3.10;99.90;;;;;;4977461;28;20176;-30
2022/03/03 06:05:53;;;;;;;29.63;15.60;;;-3.20;99.90;;;;;;4985809;28;20186;-30
2022/03/03 06:08:41;;;;;;;27.97;16.53;;;-3.20;99.90;;;;;;4971117;28;20357;-30
2022/03/03 06:11:16;;;;;;;29.07;17.57;;;-3.20;99.90;;;;;;4971809;28;20184;-30
2022/03/03 06:13:47;;;;;;;28.47;16.23;;;-3.20;99.90;;;;;;4973718;28;20218;-29
2022/03/03 06:16:20;;;;;;;27.57;16.33;;;-3.20;99.90;;;;;;4986796;28;20222;-30
2022/03/03 06:18:48;;;;;;;30.47;16.03;;;-3.20;99.90;;;;;;4974853;28;20299;-29
2022/03/03 06:21:17;;;;;;;26.17;15.33;;;-3.20;99.90;;;;;;4994327;28;20179;-30
2022/03/03 06:23:44;;;;;;;29.23;15.47;;;-3.20;99.90;;;;;;4992642;28;20214;-29
2022/03/03 06:26:20;;;;;;;29.30;16.27;;;-3.20;99.90;;;;;;4985201;28;20167;-30
2022/03/03 06:28:47;;;;;;;35.13;18.37;;;-3.20;99.90;;;;;;4986381;28;20195;-30
2022/03/03 06:31:14;;;;;;;29.53;17.10;;;-3.20;99.90;;;;;;4968143;28;20279;-29
2022/03/03 06:33:40;;;;;;;32.37;16.67;;;-3.20;99.90;;;;;;4969717;28;20172;-30
2022/03/03 06:36:07;;;;;;;30.93;17.90;;;-3.30;99.90;;;;;;4980029;28;20206;-30
2022/03/03 06:38:34;;;;;;;63.50;34.73;;;-3.30;99.90;;;;;;4979974;28;20265;-29
2022/03/03 06:41:01;;;;;;;49.07;25.00;;;-3.20;99.90;;;;;;4973693;28;20179;-29
2022/03/03 06:43:29;;;;;;;72.03;35.00;;;-3.10;99.90;;;;;;4973774;28;20183;-30
2022/03/03 06:45:56;;;;;;;36.77;21.00;;;-3.10;99.90;;;;;;4996043;28;20521;-29
2022/03/03 06:48:22;;;;;;;30.03;18.43;;;-3.00;99.90;;;;;;4996127;28;20518;-29
2022/03/03 06:50:51;;;;;;;31.13;17.10;;;-3.10;99.90;;;;;;4996013;28;20183;-29
2022/03/03 06:53:23;;;;;;;30.80;17.43;;;-3.10;99.90;;;;;;4994799;28;20227;-30
2022/03/03 06:55:50;;;;;;;29.40;17.80;;;-3.10;99.90;;;;;;4995626;28;20179;-29
2022/03/03 06:58:18;;;;;;;31.70;16.20;;;-3.20;99.90;;;;;;4979096;28;20211;-29
2022/03/03 07:00:51;;;;;;;27.53;16.60;;;-3.20;99.90;;;;;;4995533;28;20206;-29
2022/03/03 07:03:16;;;;;;;30.03;17.07;;;-3.20;99.90;;;;;;5013324;28;20172;-30
2022/03/03 07:05:42;;;;;;;32.27;17.60;;;-3.10;99.90;;;;;;4995557;28;20222;-29
2022/03/03 07:08:10;;;;;;;27.40;16.13;;;-2.90;99.90;;;;;;4984419;28;20203;-30
2022/03/03 07:10:37;;;;;;;30.10;16.27;;;-2.70;99.90;;;;;;4980432;28;20183;-30
2022/03/03 07:13:04;;;;;;;32.53;17.20;;;-2.60;99.90;;;;;;4988122;28;21188;-30
2022/03/03 07:15:34;;;;;;;33.07;17.70;;;-2.40;99.90;;;;;;4971158;28;20359;-29
2022/03/03 07:18:11;;;;;;;36.90;18.47;;;-2.30;99.90;;;;;;4982042;28;20204;-30
2022/03/03 07:21:10;;;;;;;31.57;17.90;;;-2.10;99.90;;;;;;4975060;28;20201;-30
2022/03/03 07:23:39;;;;;;;36.27;21.03;;;-1.90;99.90;;;;;;4979125;28;20199;-30
2022/03/03 07:26:08;;;;;;;31.87;18.60;;;-1.70;99.90;;;;;;4994941;28;20234;-30
2022/03/03 07:28:38;;;;;;;29.93;17.53;;;-1.60;99.90;;;;;;4993690;28;20225;-29
2022/03/03 07:31:04;;;;;;;29.70;17.50;;;-1.50;99.90;;;;;;4974842;28;20180;-30
2022/03/03 07:34:03;;;;;;;29.97;17.50;;;-1.40;99.90;;;;;;4959537;28;20215;-30
2022/03/03 07:36:33;;;;;;;28.73;17.10;;;-1.20;99.90;;;;;;4975519;28;20208;-30
2022/03/03 07:39:02;;;;;;;29.90;17.17;;;-1.10;99.90;;;;;;4959121;28;20188;-31
2022/03/03 07:41:29;;;;;;;27.97;17.07;;;-1.00;99.90;;;;;;4974772;28;20195;-30
2022/03/03 07:43:56;;;;;;;30.87;16.83;;;-0.90;99.90;;;;;;4995015;28;20218;-30
2022/03/03 07:46:23;;;;;;;31.70;17.93;;;-0.70;99.90;;;;;;4994905;28;20186;-30
2022/03/03 07:48:51;;;;;;;31.00;18.37;;;-0.60;99.90;;;;;;4994525;28;20274;-30
2022/03/03 07:51:18;;;;;;;28.80;17.33;;;-0.50;99.90;;;;;;4994946;28;20179;-30
2022/03/03 07:53:44;;;;;;;33.23;18.00;;;-0.40;99.90;;;;;;4978300;28;20183;-30
2022/03/03 07:56:15;;;;;;;30.30;17.53;;;-0.30;99.90;;;;;;4994367;28;20192;-30
2022/03/03 07:58:46;;;;;;;26.63;17.33;;;-0.10;99.90;;;;;;4994366;28;20199;-30
2022/03/03 08:01:17;;;;;;;27.90;17.80;;;0.00;99.90;;;;;;4991335;28;20175;-30
2022/03/03 08:03:46;;;;;;;28.73;16.50;;;0.00;99.90;;;;;;4994519;28;20262;-30
2022/03/03 08:06:15;;;;;;;31.47;18.40;;;0.00;99.90;;;;;;4994216;28;20187;-30
2022/03/03 08:08:41;;;;;;;27.87;17.47;;;0.00;99.90;;;;;;4978137;28;20196;-30
2022/03/03 08:11:09;;;;;;;31.83;18.77;;;0.20;99.90;;;;;;4974800;28;20194;-30
2022/03/03 08:13:36;;;;;;;29.77;17.43;;;0.10;99.90;;;;;;4962726;28;20184;-30
2022/03/03 08:16:03;;;;;;;33.63;18.43;;;0.20;99.90;;;;;;4999878;28;20175;-30
2022/03/03 08:18:32;;;;;;;30.33;18.23;;;0.30;99.90;;;;;;4984542;28;20276;-30
2022/03/03 08:21:06;;;;;;;31.43;18.00;;;0.50;99.90;;;;;;4983722;28;20212;-30
2022/03/03 08:23:33;;;;;;;31.67;18.60;;;0.70;99.90;;;;;;5000609;28;20180;-30
2022/03/03 08:26:00;;;;;;;32.13;17.87;;;0.80;99.90;;;;;;4983645;28;20196;-30
2022/03/03 08:28:26;;;;;;;29.07;17.37;;;1.00;99.90;;;;;;4984836;28;20279;-30
2022/03/03 08:31:00;;;;;;;29.90;17.93;;;1.30;99.90;;;;;;4982948;28;20263;-30
2022/03/03 08:33:42;;;;;;;27.60;16.47;;;1.50;99.90;;;;;;4968430;28;20223;-30
2022/03/03 08:36:33;;;;;;;27.97;17.57;;;1.60;99.90;;;;;;4982544;28;20178;-30
2022/03/03 08:39:05;;;;;;;26.63;17.00;;;1.80;99.90;;;;;;4970444;28;20183;-30
2022/03/03 08:41:35;;;;;;;28.97;17.30;;;2.00;99.90;;;;;;5002842;28;20186;-30
2022/03/03 08:44:03;;;;;;;29.70;16.57;;;2.20;99.90;;;;;;4963382;28;20187;-30
2022/03/03 08:46:33;;;;;;;32.07;17.10;;;2.40;99.90;;;;;;4964999;28;20221;-31
2022/03/03 08:49:04;;;;;;;31.03;17.23;;;2.50;99.90;;;;;;5010005;28;20277;-30
2022/03/03 08:51:30;;;;;;;29.03;18.67;;;2.60;99.90;;;;;;5009251;28;20270;-31
2022/03/03 08:53:57;;;;;;;24.37;16.37;;;2.70;99.90;;;;;;4974466;28;20253;-31
2022/03/03 08:56:30;;;;;;;25.80;17.13;;;2.90;99.90;;;;;;4986879;28;20179;-31
2022/03/03 08:58:55;;;;;;;26.87;16.53;;;3.10;99.90;;;;;;4983939;28;20601;-31
2022/03/03 09:01:22;;;;;;;26.47;17.73;;;3.30;99.90;;;;;;4978768;28;20175;-30
2022/03/03 09:03:48;;;;;;;28.37;16.90;;;3.50;99.90;;;;;;4978934;28;20191;-30
2022/03/03 09:06:15;;;;;;;25.30;16.27;;;3.70;99.90;;;;;;4995548;28;20230;-31
2022/03/03 09:08:41;;;;;;;23.90;15.80;;;3.90;99.90;;;;;;4979541;28;20198;-31
2022/03/03 09:11:07;;;;;;;26.13;16.70;;;4.00;99.90;;;;;;4989622;28;20194;-31
2022/03/03 09:13:34;;;;;;;22.57;15.87;;;4.00;99.90;;;;;;4959315;28;20182;-30
2022/03/03 09:16:00;;;;;;;26.50;17.27;;;4.00;99.90;;;;;;4981409;28;20184;-31
2022/03/03 09:18:27;;;;;;;30.07;18.07;;;4.20;99.90;;;;;;4979161;28;20257;-30
2022/03/03 09:20:53;;;;;;;24.30;17.17;;;4.30;99.90;;;;;;4966598;28;20207;-31
2022/03/03 09:23:19;;;;;;;29.57;17.70;;;4.30;99.90;;;;;;4985386;28;20172;-31
2022/03/03 09:25:46;;;;;;;25.33;17.10;;;4.20;99.90;;;;;;4992631;28;20194;-31
2022/03/03 09:28:16;;;;;;;27.27;17.43;;;4.10;99.90;;;;;;4987628;28;20204;-31
2022/03/03 09:30:44;;;;;;;27.13;17.77;;;4.30;99.90;;;;;;4986018;28;20183;-31
2022/03/03 09:33:10;;;;;;;27.27;18.37;;;4.40;99.90;;;;;;4986645;28;20193;-31
2022/03/03 09:35:36;;;;;;;26.37;17.90;;;4.50;99.90;;;;;;4983768;28;20326;-31
2022/03/03 09:38:02;;;;;;;30.17;18.33;;;4.60;99.90;;;;;;4973269;28;20275;-31
2022/03/03 09:40:28;;;;;;;26.40;17.50;;;4.70;99.90;;;;;;4982126;28;20203;-31
2022/03/03 09:43:02;;;;;;;25.67;17.20;;;4.90;99.90;;;;;;4982017;28;20196;-32
2022/03/03 09:45:29;;;;;;;26.97;17.57;;;5.10;99.90;;;;;;4963421;28;20176;-32
2022/03/03 09:47:56;;;;;;;27.00;17.43;;;5.30;99.90;;;;;;4962521;28;20310;-32
2022/03/03 09:50:23;;;;;;;24.90;17.47;;;5.40;99.90;;;;;;4994399;28;20600;-32
2022/03/03 09:52:50;;;;;;;24.87;16.40;;;5.50;99.90;;;;;;4970023;28;20262;-32
2022/03/03 09:55:17;;;;;;;32.40;19.80;;;5.70;99.90;;;;;;4996501;28;20195;-31
2022/03/03 09:57:43;;;;;;;32.70;20.83;;;5.90;99.90;;;;;;4977619;28;20211;-32
2022/03/03 10:00:12;;;;;;;26.27;17.00;;;6.00;99.90;;;;;;4985672;28;20186;-32
2022/03/03 10:03:09;;;;;;;25.53;16.33;;;6.00;99.90;;;;;;4993442;28;20194;-32
2022/03/03 10:05:48;;;;;;;23.20;15.43;;;6.10;99.90;;;;;;4996474;28;20195;-32
2022/03/03 10:08:16;;;;;;;22.97;16.33;;;6.20;99.90;;;;;;4979815;28;20207;-31
2022/03/03 10:10:48;;;;;;;24.23;15.97;;;6.30;99.90;;;;;;4996193;28;20218;-32
2022/03/03 10:13:16;;;;;;;26.03;15.80;;;6.30;99.90;;;;;;5012529;28;20215;-32
2022/03/03 10:15:51;;;;;;;21.70;15.20;;;6.40;99.90;;;;;;5013846;28;20257;-31
2022/03/03 10:18:19;;;;;;;23.97;16.27;;;6.60;99.90;;;;;;4993680;28;20232;-31
2022/03/03 10:20:56;;;;;;;23.57;16.20;;;6.70;99.90;;;;;;5005144;28;20176;-32
2022/03/03 10:23:35;;;;;;;25.20;15.97;;;6.70;99.90;;;;;;4988453;28;20188;-31
2022/03/03 10:26:06;;;;;;;23.03;15.87;;;6.70;99.90;;;;;;4989179;28;20183;-32
2022/03/03 10:28:34;;;;;;;23.10;15.93;;;6.90;99.90;;;;;;4986582;28;20229;-31
2022/03/03 10:31:08;;;;;;;24.77;15.83;;;6.90;99.90;;;;;;5004568;28;20174;-32
2022/03/03 10:33:38;;;;;;;24.43;16.07;;;7.00;99.90;;;;;;4970789;28;20269;-31
2022/03/03 10:36:09;;;;;;;26.70;16.97;;;7.10;99.90;;;;;;4984986;28;20654;-31
2022/03/03 10:38:51;;;;;;;23.47;16.17;;;7.30;99.90;;;;;;4970975;28;20203;-31
2022/03/03 10:41:29;;;;;;;27.37;16.50;;;7.40;99.90;;;;;;4984798;28;20256;-32
2022/03/03 10:43:55;;;;;;;22.90;15.70;;;7.60;99.90;;;;;;4976987;28;20179;-31
2022/03/03 10:46:21;;;;;;;23.80;15.43;;;7.70;99.90;;;;;;4965882;28;20176;-31
2022/03/03 10:48:47;;;;;;;24.67;15.83;;;7.80;99.90;;;;;;4959364;28;20213;-31
2022/03/03 10:51:16;;;;;;;25.37;15.90;;;8.00;99.90;;;;;;4981390;28;20214;-31
2022/03/03 10:53:43;;;;;;;22.30;15.37;;;8.20;99.90;;;;;;4979221;28;20170;-31
2022/03/03 10:56:18;;;;;;;21.27;14.63;;;8.20;99.90;;;;;;5013287;28;20186;-32
2022/03/03 10:58:55;;;;;;;152.53;82.90;;;8.40;99.90;;;;;;5013354;28;20201;-31
2022/03/03 11:01:25;;;;;;;81.63;57.40;;;8.60;99.90;;;;;;5002621;28;20201;-32
2022/03/03 11:03:53;;;;;;;28.10;18.23;;;8.70;99.90;;;;;;4981609;28;20184;-32
2022/03/03 11:06:22;;;;;;;23.17;15.90;;;8.80;99.90;;;;;;4981401;28;20273;-32
2022/03/03 11:08:50;;;;;;;25.23;15.63;;;8.80;99.90;;;;;;4995496;28;20325;-31
2022/03/03 11:11:16;;;;;;;34.87;25.80;;;9.00;99.90;;;;;;4996641;28;20297;-32
2022/03/03 11:13:45;;;;;;;23.07;15.57;;;9.20;99.90;;;;;;4997436;28;20258;-32
2022/03/03 11:16:11;;;;;;;27.27;16.37;;;9.20;99.90;;;;;;4981544;28;20232;-31
2022/03/03 11:18:37;;;;;;;37.47;24.13;;;9.30;99.90;;;;;;4997732;28;20222;-30
2022/03/03 11:21:04;;;;;;;203.17;119.13;;;9.40;99.90;;;;;;4997233;28;20636;-30
2022/03/03 11:23:59;;;;;;;92.03;65.30;;;9.60;99.90;;;;;;4995249;28;20246;-32
2022/03/03 11:26:29;;;;;;;47.73;31.33;;;9.80;99.90;;;;;;4990797;28;20302;-32
2022/03/03 11:29:16;;;;;;;139.00;100.30;;;9.90;99.90;;;;;;4985638;28;20290;-31
2022/03/03 11:31:59;;;;;;;642.20;410.17;;;10.10;99.90;;;;;;4985172;28;20215;-29
2022/03/03 11:34:32;;;;;;;224.13;148.10;;;10.30;99.90;;;;;;4979536;28;20238;-30
2022/03/03 11:37:16;;;;;;;85.20;60.77;;;10.40;99.90;;;;;;4980622;28;20257;-30
2022/03/03 11:39:59;;;;;;;43.70;31.67;;;10.50;99.90;;;;;;5014213;28;20164;-31
2022/03/03 11:42:35;;;;;;;22.83;16.57;;;10.50;99.90;;;;;;4993802;28;20168;-30
2022/03/03 11:45:17;;;;;;;135.83;85.23;;;10.50;99.90;;;;;;4977579;28;20229;-30
2022/03/03 11:47:45;;;;;;;167.07;107.83;;;10.50;99.90;;;;;;4981113;28;20234;-32
2022/03/03 11:50:16;;;;;;;62.83;41.63;;;10.60;99.90;;;;;;4974815;28;20184;-31
2022/03/03 11:52:49;;;;;;;154.67;80.47;;;10.70;99.90;;;;;;4992764;28;20175;-31
2022/03/03 11:55:33;;;;;;;30.50;19.77;;;10.80;99.90;;;;;;4959097;28;20251;-31
2022/03/03 11:58:24;;;;;;;122.53;77.53;;;10.80;99.90;;;;;;4958996;28;20215;-31
2022/03/03 12:01:05;;;;;;;27.97;19.60;;;11.00;99.90;;;;;;4975007;28;20188;-30
2022/03/03 12:03:32;;;;;;;27.23;17.13;;;10.90;99.90;;;;;;4975303;28;20176;-30
2022/03/03 12:06:05;;;;;;;28.50;18.73;;;11.10;99.90;;;;;;4958861;28;20187;-31
2022/03/03 12:08:33;;;;;;;26.57;18.80;;;11.10;99.90;;;;;;4975041;28;20196;-31
2022/03/03 12:10:59;;;;;;;33.73;20.80;;;11.30;99.90;;;;;;4994317;28;20183;-33
2022/03/03 12:13:26;;;;;;;35.83;23.33;;;11.50;99.90;;;;;;4994609;28;20179;-31
2022/03/03 12:16:11;;;;;;;30.67;21.07;;;11.70;99.90;;;;;;4994542;28;20246;-30
2022/03/03 12:18:37;;;;;;;24.50;17.87;;;11.90;99.90;;;;;;4993488;28;20213;-31
2022/03/03 12:21:26;;;;;;;24.33;16.93;;;12.00;99.90;;;;;;4981453;28;20187;-31
2022/03/03 12:24:17;;;;;;;26.47;17.50;;;12.00;99.70;;;;;;4984854;28;20227;-32
2022/03/03 12:27:08;;;;;;;24.40;16.70;;;12.20;99.90;;;;;;4998977;28;20188;-30
2022/03/03 12:29:51;;;;;;;23.73;16.80;;;12.10;99.10;;;;;;4998586;28;20552;-32
2022/03/03 12:32:55;;;;;;;24.40;16.43;;;12.30;99.40;;;;;;4984832;28;20190;-32
2022/03/03 12:35:31;;;;;;;22.97;16.90;;;12.30;99.10;;;;;;4942985;28;20197;-33
2022/03/03 12:37:59;;;;;;;25.90;17.00;;;12.40;98.60;;;;;;4974609;28;20227;-32
2022/03/03 12:40:28;;;;;;;21.93;15.53;;;12.50;99.00;;;;;;4981345;28;20184;-31